Sint-Niklaas, Belgium
Current Conditions -  °F | °C
As of 4:20 PM on Wednesday 22 Oct 2014 (Local Time) from EBAW Reporting Station
Broken Clouds Broken Clouds  
Wind Chill: 54°   Ceiling: 3600
Heat Index: 54°   Visibility: 6mi
Dew Point: 45°   Wind: 17mph
Humidity: 72%   Direction: 300°WNW
Pressure: 30.18"   Gusts: NA
Location:  51.17°N, 4.1°E
Report Text: EBAW 221420Z 30015KT 9999 SCT029 BKN036 12/07 Q1022 NOSIG
Loading
Personal Weather Stations






























Interactive Weather Map
Tropical Storm Tracking
New forecast layout! Learn more

10-Day Weather Forecast

Advertisements
Track Severe Weather on mobile